Time;durP1;ratioP1;P1;durP2;ratioP2;P2;SDS_P1;SDS_P2;PMS_P1;PMS_P2;Temp;Humidity;BMP_temperature;BMP_pressure;BME280_temperature;BME280_humidity;BME280_pressure;Samples;Min_cycle;Max_cycle;Signal;HPM_P1;HPM_P2
2022/12/07 00:01:13;;;;;;;3.67;1.10;;;5.10;79.20;;;;;;5062739;28;20114;-68
2022/12/07 00:03:41;;;;;;;3.50;1.05;;;5.00;79.20;;;;;;5071182;28;20037;-67
2022/12/07 00:06:09;;;;;;;4.78;1.05;;;5.00;79.10;;;;;;5089815;28;20051;-76
2022/12/07 00:08:35;;;;;;;4.18;1.17;;;5.00;79.20;;;;;;5069435;28;20039;-76
2022/12/07 00:11:07;;;;;;;3.88;0.88;;;5.00;79.20;;;;;;5063268;28;20057;-77
2022/12/07 00:13:33;;;;;;;1.92;0.70;;;5.00;79.30;;;;;;5068053;28;20047;-77
2022/12/07 00:16:11;;;;;;;3.47;0.95;;;5.00;79.40;;;;;;5064892;28;20052;-77
2022/12/07 00:18:37;;;;;;;4.95;1.10;;;5.00;79.50;;;;;;5069177;28;20032;-77
2022/12/07 00:21:14;;;;;;;5.53;1.27;;;4.90;79.30;;;;;;5072231;28;20523;-76
2022/12/07 00:23:41;;;;;;;3.58;1.10;;;5.00;79.40;;;;;;5068094;28;20068;-77
2022/12/07 00:26:18;;;;;;;3.33;1.23;;;4.90;79.20;;;;;;5064205;28;20051;-77
2022/12/07 00:28:49;;;;;;;3.03;0.90;;;5.00;79.20;;;;;;5064628;28;20040;-77
2022/12/07 00:31:16;;;;;;;5.60;1.00;;;4.90;79.30;;;;;;5089835;28;20043;-77
2022/12/07 00:33:42;;;;;;;5.55;1.08;;;4.90;79.10;;;;;;5072270;28;20119;-75
2022/12/07 00:36:11;;;;;;;6.35;1.20;;;5.10;79.10;;;;;;5069829;28;20115;-75
2022/12/07 00:38:38;;;;;;;5.78;1.65;;;4.90;79.00;;;;;;5072215;28;20040;-76
2022/12/07 00:41:14;;;;;;;2.75;0.93;;;4.90;79.00;;;;;;5046217;28;20129;-76
2022/12/07 00:43:42;;;;;;;3.60;0.90;;;5.00;79.10;;;;;;5065122;28;20032;-76
2022/12/07 00:46:08;;;;;;;5.60;1.52;;;4.80;79.00;;;;;;5054445;28;20435;-76
2022/12/07 00:48:34;;;;;;;3.97;0.88;;;4.80;79.00;;;;;;5069567;28;20036;-76
2022/12/07 00:50:59;;;;;;;5.60;1.25;;;4.80;79.00;;;;;;5063132;28;20085;-76
2022/12/07 00:53:25;;;;;;;5.47;0.90;;;4.80;79.00;;;;;;5069397;28;20040;-76
2022/12/07 00:55:52;;;;;;;4.90;1.30;;;4.80;79.10;;;;;;5062591;28;20037;-75
2022/12/07 00:58:18;;;;;;;7.53;1.33;;;4.80;79.20;;;;;;5092615;28;20094;-75
2022/12/07 01:00:44;;;;;;;6.85;1.60;;;4.80;79.20;;;;;;5070671;28;20094;-75
2022/12/07 01:03:12;;;;;;;5.00;1.20;;;4.80;79.30;;;;;;5064706;28;20487;-76
2022/12/07 01:05:39;;;;;;;4.72;1.20;;;4.80;79.40;;;;;;5048248;28;20063;-76
2022/12/07 01:08:05;;;;;;;2.60;0.90;;;4.80;79.40;;;;;;5071338;28;20044;-76
2022/12/07 01:10:31;;;;;;;5.70;1.13;;;4.80;79.50;;;;;;5090280;28;20058;-76
2022/12/07 01:12:57;;;;;;;4.15;1.15;;;4.80;79.50;;;;;;5063637;28;20048;-76
2022/12/07 01:15:23;;;;;;;6.43;1.35;;;4.70;79.30;;;;;;5092379;28;20036;-76
2022/12/07 01:17:49;;;;;;;6.88;1.27;;;4.80;79.40;;;;;;5050462;28;20047;-75
2022/12/07 01:20:15;;;;;;;9.05;1.40;;;4.70;79.30;;;;;;5063817;28;20422;-76
2022/12/07 01:22:42;;;;;;;4.57;1.00;;;4.70;79.30;;;;;;5085819;28;20041;-76
2022/12/07 01:25:10;;;;;;;4.45;1.23;;;4.70;79.30;;;;;;5060981;28;20475;-75
2022/12/07 01:27:37;;;;;;;5.70;1.73;;;4.70;79.30;;;;;;5060542;28;20040;-75
2022/12/07 01:30:06;;;;;;;4.88;1.30;;;4.70;79.30;;;;;;5054129;28;20044;-75
2022/12/07 01:32:32;;;;;;;6.82;1.25;;;4.70;79.30;;;;;;5051327;28;20059;-76
2022/12/07 01:34:57;;;;;;;6.47;1.35;;;4.70;79.40;;;;;;5074605;28;20036;-75
2022/12/07 01:37:23;;;;;;;4.75;1.05;;;4.70;79.50;;;;;;5056180;28;20054;-76
2022/12/07 01:39:52;;;;;;;9.73;1.40;;;4.70;79.60;;;;;;5065173;28;20051;-75
2022/12/07 01:42:18;;;;;;;7.75;1.90;;;4.70;79.70;;;;;;5071398;28;20044;-75
2022/12/07 01:45:18;;;;;;;7.68;1.95;;;4.60;79.60;;;;;;5076552;28;20039;-76
2022/12/07 01:47:51;;;;;;;8.18;2.90;;;4.70;79.60;;;;;;5056664;28;20048;-75
2022/12/07 01:50:17;;;;;;;13.25;4.35;;;4.60;79.50;;;;;;5075237;28;20119;-75
2022/12/07 01:52:48;;;;;;;8.40;2.10;;;4.60;79.50;;;;;;5067406;28;20052;-76
2022/12/07 01:55:14;;;;;;;4.22;1.38;;;4.60;79.40;;;;;;5072476;28;20495;-76
2022/12/07 01:57:45;;;;;;;7.45;1.75;;;4.60;79.40;;;;;;5072803;28;20479;-75
2022/12/07 02:00:12;;;;;;;5.47;1.15;;;4.60;79.40;;;;;;5062943;28;20495;-75
2022/12/07 02:02:48;;;;;;;7.93;1.67;;;4.60;79.30;;;;;;5076826;28;20035;-75
2022/12/07 02:05:15;;;;;;;7.03;1.85;;;4.60;79.10;;;;;;5077646;28;20040;-67
2022/12/07 02:07:41;;;;;;;5.15;1.20;;;4.60;79.10;;;;;;5069050;28;20106;-67
2022/12/07 02:10:17;;;;;;;6.82;1.05;;;4.50;79.00;;;;;;5071361;28;20036;-67
2022/12/07 02:12:46;;;;;;;6.45;1.40;;;4.50;79.20;;;;;;5059687;28;20036;-68
2022/12/07 02:15:13;;;;;;;8.93;2.65;;;4.50;79.20;;;;;;5077282;28;20048;-68
2022/12/07 02:17:51;;;;;;;7.78;3.53;;;4.60;79.20;;;;;;5059578;28;20396;-69
2022/12/07 02:20:29;;;;;;;3.75;1.40;;;4.50;79.10;;;;;;5057883;28;20057;-68
2022/12/07 02:23:15;;;;;;;3.22;1.30;;;4.50;79.10;;;;;;5064763;28;20373;-68
2022/12/07 02:25:59;;;;;;;5.28;1.95;;;4.50;79.20;;;;;;5059493;28;20037;-68
2022/12/07 02:29:00;;;;;;;5.35;1.05;;;4.50;79.30;;;;;;5065264;28;20044;-68
2022/12/07 02:31:29;;;;;;;4.72;2.05;;;4.50;79.40;;;;;;5041278;28;20373;-68
2022/12/07 02:34:07;;;;;;;4.75;1.58;;;4.50;79.40;;;;;;5076613;28;20107;-68
2022/12/07 02:36:40;;;;;;;7.70;1.77;;;4.50;79.50;;;;;;5059555;28;20040;-68
2022/12/07 02:39:11;;;;;;;7.32;1.48;;;4.50;79.40;;;;;;5070478;28;20044;-68
2022/12/07 02:41:54;;;;;;;12.70;4.53;;;4.50;79.40;;;;;;5067962;28;20058;-68
2022/12/07 02:44:27;;;;;;;17.15;8.95;;;4.40;79.30;;;;;;5069851;28;20070;-68
2022/12/07 02:46:57;;;;;;;14.15;5.97;;;4.40;79.50;;;;;;5060725;28;20484;-68
2022/12/07 02:49:24;;;;;;;10.13;3.90;;;4.40;79.60;;;;;;5076166;28;20103;-68
2022/12/07 02:51:50;;;;;;;6.85;1.60;;;4.40;79.70;;;;;;5074180;28;21554;-68
2022/12/07 02:54:19;;;;;;;7.25;1.60;;;4.40;79.90;;;;;;5054393;28;20048;-68
2022/12/07 02:56:44;;;;;;;4.25;1.02;;;4.40;80.10;;;;;;5058287;28;20101;-68
2022/12/07 02:59:19;;;;;;;5.90;1.33;;;4.40;80.30;;;;;;5068722;28;20040;-68
2022/12/07 03:01:54;;;;;;;;;;;4.40;80.50;;;;;;5044371;28;20123;-68
2022/12/07 03:04:20;;;;;;;8.02;1.10;;;4.40;80.50;;;;;;5062375;28;20367;-67
2022/12/07 03:06:57;;;;;;;3.30;0.73;;;4.40;80.60;;;;;;5076247;28;20047;-67
2022/12/07 03:09:33;;;;;;;6.03;1.08;;;4.50;80.90;;;;;;5062905;28;20402;-68
2022/12/07 03:12:31;;;;;;;5.05;0.98;;;4.50;81.40;;;;;;5058686;28;20499;-68
2022/12/07 03:15:07;;;;;;;5.50;0.80;;;4.50;81.10;;;;;;5062046;28;20113;-68
2022/12/07 03:17:37;;;;;;;9.13;1.33;;;4.50;81.10;;;;;;5063824;28;20047;-68
2022/12/07 03:20:07;;;;;;;5.38;1.00;;;4.50;81.20;;;;;;5056023;28;20503;-68
2022/12/07 03:22:35;;;;;;;6.35;1.23;;;4.50;81.30;;;;;;5065425;28;20048;-68
2022/12/07 03:25:06;;;;;;;5.88;0.82;;;4.50;81.20;;;;;;5090263;28;20392;-68
2022/12/07 03:27:37;;;;;;;4.82;0.63;;;4.60;81.20;;;;;;5070513;28;20039;-68
2022/12/07 03:30:09;;;;;;;10.30;1.50;;;4.60;81.20;;;;;;5075434;28;20056;-68
2022/12/07 03:32:47;;;;;;;3.97;0.88;;;4.60;81.10;;;;;;5073867;28;20482;-68
2022/12/07 03:35:20;;;;;;;6.68;0.88;;;4.60;81.00;;;;;;5048981;28;20047;-68
2022/12/07 03:37:57;;;;;;;4.97;0.95;;;4.60;80.80;;;;;;5073410;28;20111;-68
2022/12/07 03:40:33;;;;;;;4.40;1.05;;;4.50;80.70;;;;;;5056377;28;20047;-68
2022/12/07 03:43:01;;;;;;;4.40;0.80;;;4.50;80.60;;;;;;5064466;28;20047;-68
2022/12/07 03:45:40;;;;;;;5.82;1.20;;;4.50;80.50;;;;;;5087641;28;20572;-68
2022/12/07 03:48:22;;;;;;;2.92;0.80;;;4.60;80.50;;;;;;5075046;28;20115;-68
2022/12/07 03:51:17;;;;;;;3.63;0.93;;;4.50;80.40;;;;;;5051943;28;20089;-68
2022/12/07 03:54:02;;;;;;;5.15;1.50;;;4.50;80.40;;;;;;5052209;28;20041;-68
2022/12/07 03:56:29;;;;;;;5.82;0.75;;;4.50;80.40;;;;;;5056548;28;20032;-68
2022/12/07 03:58:54;;;;;;;6.18;0.70;;;4.50;80.40;;;;;;5056080;28;20036;-68
2022/12/07 04:01:22;;;;;;;3.30;0.70;;;4.50;80.30;;;;;;5066445;28;20110;-68
2022/12/07 04:03:47;;;;;;;10.60;1.75;;;4.50;80.30;;;;;;5041486;28;20039;-68
2022/12/07 04:06:14;;;;;;;5.70;0.88;;;4.50;80.30;;;;;;5068375;28;20036;-68
2022/12/07 04:08:39;;;;;;;4.40;0.80;;;4.60;80.20;;;;;;5050525;28;20357;-68
2022/12/07 04:11:05;;;;;;;4.70;1.00;;;4.50;80.10;;;;;;5047084;28;20066;-68
2022/12/07 04:14:17;;;;;;;2.40;0.70;;;4.60;80.10;;;;;;5067267;28;20043;-68
2022/12/07 04:16:16;;;;;;;4.28;0.80;;;4.50;79.90;;;;;;5074429;28;20483;-68
2022/12/07 04:18:42;;;;;;;3.33;0.65;;;4.50;80.00;;;;;;5069220;28;20074;-68
2022/12/07 04:21:07;;;;;;;5.22;0.80;;;4.50;79.90;;;;;;5068935;28;20047;-68
2022/12/07 04:23:33;;;;;;;2.90;0.60;;;4.50;79.90;;;;;;5066924;28;20075;-67
2022/12/07 04:25:59;;;;;;;3.38;0.75;;;4.50;79.90;;;;;;5055595;28;20387;-67
2022/12/07 04:28:24;;;;;;;4.40;0.73;;;4.50;79.90;;;;;;5075321;28;20098;-68
2022/12/07 04:30:50;;;;;;;3.53;0.60;;;4.50;79.90;;;;;;5068938;28;20442;-68
2022/12/07 04:33:16;;;;;;;6.03;1.10;;;4.50;79.90;;;;;;5059416;28;20050;-68
2022/12/07 04:35:42;;;;;;;4.15;1.33;;;4.40;79.80;;;;;;5060392;28;20051;-68
2022/12/07 04:38:08;;;;;;;3.08;0.82;;;4.50;79.80;;;;;;5059797;28;20492;-68
2022/12/07 04:40:34;;;;;;;4.75;0.93;;;4.50;79.80;;;;;;5055506;28;20046;-68
2022/12/07 04:43:00;;;;;;;5.70;1.00;;;4.40;79.70;;;;;;5082004;28;20036;-68
2022/12/07 04:45:25;;;;;;;5.13;0.90;;;4.50;79.70;;;;;;5082982;28;20059;-68
2022/12/07 04:47:51;;;;;;;2.38;0.70;;;4.40;79.60;;;;;;5049076;28;20091;-65
2022/12/07 04:50:17;;;;;;;1.33;0.40;;;4.40;79.60;;;;;;5074747;28;20040;-65
2022/12/07 04:52:42;;;;;;;3.08;0.95;;;4.40;79.60;;;;;;5056899;28;20052;-67
2022/12/07 04:55:08;;;;;;;3.55;0.80;;;4.40;79.60;;;;;;5053257;28;20498;-67
2022/12/07 04:57:34;;;;;;;2.10;0.50;;;4.40;80.10;;;;;;5047650;28;20087;-67
2022/12/07 05:00:00;;;;;;;4.47;0.50;;;4.40;79.70;;;;;;5055024;28;20467;-67
2022/12/07 05:02:25;;;;;;;4.40;0.70;;;4.40;79.70;;;;;;5069719;28;20040;-67
2022/12/07 05:04:51;;;;;;;3.28;1.10;;;4.40;79.70;;;;;;5073672;28;20067;-67
2022/12/07 05:07:17;;;;;;;2.95;0.80;;;4.40;79.80;;;;;;5073792;28;20071;-67
2022/12/07 05:09:43;;;;;;;5.60;0.80;;;4.40;79.80;;;;;;5071417;28;20063;-68
2022/12/07 05:12:08;;;;;;;6.22;1.58;;;4.40;79.70;;;;;;5067480;28;20040;-67
2022/12/07 05:14:34;;;;;;;4.10;0.65;;;4.40;79.70;;;;;;5055242;28;20036;-68
2022/12/07 05:16:59;;;;;;;4.20;0.60;;;4.40;80.00;;;;;;5059194;28;20049;-67
2022/12/07 05:19:26;;;;;;;3.33;0.90;;;4.40;79.60;;;;;;5057230;28;20048;-67
2022/12/07 05:21:51;;;;;;;4.82;0.70;;;4.40;79.60;;;;;;5065760;28;20066;-68
2022/12/07 05:24:17;;;;;;;4.05;0.75;;;4.40;79.60;;;;;;5059547;28;20495;-67
2022/12/07 05:26:44;;;;;;;5.97;1.10;;;4.40;79.60;;;;;;5066740;28;20044;-67
2022/12/07 05:29:12;;;;;;;4.97;0.80;;;4.30;79.50;;;;;;5054787;28;20069;-67
2022/12/07 05:31:38;;;;;;;5.18;0.63;;;4.40;79.50;;;;;;5062360;28;20040;-67
2022/12/07 05:34:03;;;;;;;4.32;0.93;;;4.30;79.30;;;;;;5065617;28;20036;-67
2022/12/07 05:36:31;;;;;;;7.32;1.48;;;4.30;79.20;;;;;;5042295;28;20045;-67
2022/12/07 05:38:57;;;;;;;5.85;1.35;;;4.30;79.00;;;;;;5060653;28;20036;-67
2022/12/07 05:44:07;;;;;;;3.70;0.80;;;4.30;78.90;;;;;;5069927;28;20101;-67
2022/12/07 05:46:33;;;;;;;2.72;0.68;;;4.20;78.80;;;;;;5073910;28;20040;-67
2022/12/07 05:48:59;;;;;;;5.20;1.35;;;4.30;78.90;;;;;;5072875;28;20449;-67
2022/12/07 05:51:24;;;;;;;4.97;0.75;;;4.20;79.00;;;;;;5057519;28;20067;-67
2022/12/07 05:53:50;;;;;;;3.25;0.82;;;4.20;79.00;;;;;;5056204;28;20032;-67
2022/12/07 05:56:16;;;;;;;5.90;1.20;;;4.20;79.40;;;;;;5075773;28;20044;-66
2022/12/07 06:01:26;;;;;;;4.13;0.80;;;4.20;78.80;;;;;;5071717;28;20127;-67
2022/12/07 06:03:51;;;;;;;5.13;1.00;;;4.10;78.70;;;;;;5072493;28;20115;-67
2022/12/07 06:06:17;;;;;;;6.28;1.10;;;4.10;78.70;;;;;;5069521;28;20475;-66
2022/12/07 06:08:42;;;;;;;7.18;1.17;;;4.10;78.70;;;;;;5056022;28;20159;-67
2022/12/07 06:13:52;;;;;;;8.02;1.45;;;4.00;78.90;;;;;;5073265;28;20470;-71
2022/12/07 06:16:18;;;;;;;5.35;1.10;;;4.00;79.00;;;;;;5069117;28;20036;-71
2022/12/07 06:18:44;;;;;;;4.18;0.98;;;4.00;79.20;;;;;;5056834;28;20047;-71
2022/12/07 06:21:09;;;;;;;6.22;1.10;;;4.10;79.40;;;;;;5056679;28;20040;-71
2022/12/07 06:23:35;;;;;;;5.88;0.95;;;4.00;79.50;;;;;;5060454;28;20040;-73
2022/12/07 06:26:01;;;;;;;3.25;1.10;;;4.00;79.70;;;;;;5071079;28;20468;-73
2022/12/07 06:28:26;;;;;;;7.15;1.08;;;4.00;79.80;;;;;;5045253;28;20126;-73
2022/12/07 06:31:00;;;;;;;3.80;0.88;;;4.10;80.00;;;;;;5063352;28;20051;-73
2022/12/07 06:33:26;;;;;;;5.40;0.82;;;4.10;80.20;;;;;;5044758;28;20387;-74
2022/12/07 06:35:52;;;;;;;5.22;0.90;;;4.10;80.30;;;;;;5061686;28;20067;-72
2022/12/07 06:38:18;;;;;;;7.00;1.10;;;4.20;80.40;;;;;;5066423;28;20068;-72
2022/12/07 06:40:43;;;;;;;3.33;0.82;;;4.10;80.40;;;;;;5062920;28;20069;-73
2022/12/07 06:43:09;;;;;;;6.22;1.00;;;4.10;80.50;;;;;;5028862;28;20119;-73
2022/12/07 06:45:35;;;;;;;7.88;1.20;;;4.10;80.60;;;;;;5073745;28;20055;-72
2022/12/07 06:48:00;;;;;;;7.22;1.30;;;4.10;80.60;;;;;;5072185;28;20483;-73
2022/12/07 06:50:26;;;;;;;5.93;1.48;;;4.10;80.60;;;;;;5067076;28;20029;-73
2022/12/07 06:52:52;;;;;;;6.50;1.10;;;4.20;80.60;;;;;;5047263;28;20072;-73
2022/12/07 06:55:18;;;;;;;5.18;1.05;;;4.20;80.60;;;;;;5057586;28;20387;-73
2022/12/07 06:57:44;;;;;;;5.45;0.80;;;4.10;80.40;;;;;;5065829;28;20040;-73
2022/12/07 07:00:11;;;;;;;4.32;0.70;;;4.10;80.70;;;;;;5076263;28;20044;-72
2022/12/07 07:02:36;;;;;;;3.33;0.73;;;4.20;80.30;;;;;;5045800;28;20032;-69
2022/12/07 07:05:03;;;;;;;5.53;1.00;;;4.20;80.20;;;;;;5062771;28;20036;-69
2022/12/07 07:07:29;;;;;;;3.08;0.68;;;4.20;80.10;;;;;;5076270;28;20114;-68
2022/12/07 07:09:54;;;;;;;3.22;0.70;;;4.20;80.10;;;;;;5076235;28;20052;-69
2022/12/07 07:12:20;;;;;;;4.35;0.90;;;4.20;80.00;;;;;;5059953;28;20032;-68
2022/12/07 07:14:46;;;;;;;2.50;0.70;;;4.10;79.90;;;;;;5067273;28;20087;-69
2022/12/07 07:17:12;;;;;;;2.20;0.90;;;4.10;79.80;;;;;;5040620;28;20136;-68
2022/12/07 07:19:38;;;;;;;4.28;1.00;;;4.10;80.20;;;;;;5041384;28;20123;-68
2022/12/07 07:22:04;;;;;;;5.75;0.90;;;4.10;79.70;;;;;;5040128;28;20099;-68
2022/12/07 07:24:30;;;;;;;6.00;0.90;;;4.10;79.60;;;;;;5070333;28;20040;-68
2022/12/07 07:26:55;;;;;;;5.07;1.02;;;4.10;79.50;;;;;;5059526;28;20039;-69
2022/12/07 07:29:21;;;;;;;4.28;0.70;;;4.10;79.40;;;;;;5076441;28;20040;-68
2022/12/07 07:31:47;;;;;;;3.08;0.50;;;4.10;79.30;;;;;;5076149;28;20044;-68
2022/12/07 07:34:13;;;;;;;3.67;0.80;;;4.10;79.30;;;;;;5057615;28;20051;-69
2022/12/07 07:36:39;;;;;;;6.95;1.25;;;4.00;79.30;;;;;;5040284;28;20052;-68
2022/12/07 07:39:04;;;;;;;2.78;0.60;;;4.10;79.50;;;;;;5064653;28;20052;-68
2022/12/07 07:41:31;;;;;;;2.53;0.50;;;4.10;80.00;;;;;;5072638;28;20032;-69
2022/12/07 07:43:57;;;;;;;3.30;0.70;;;4.10;79.60;;;;;;5071122;28;20032;-69
2022/12/07 07:46:22;;;;;;;3.67;0.65;;;4.10;79.50;;;;;;5059183;28;20073;-69
2022/12/07 07:48:48;;;;;;;2.97;0.93;;;4.20;79.50;;;;;;5062470;28;20428;-69
2022/12/07 07:51:14;;;;;;;2.72;0.60;;;4.10;79.40;;;;;;5047335;28;20036;-69
2022/12/07 07:53:39;;;;;;;3.08;0.47;;;4.00;79.40;;;;;;5076012;28;20500;-69
2022/12/07 07:56:05;;;;;;;3.58;0.77;;;4.10;79.60;;;;;;5075918;28;20079;-68
2022/12/07 07:58:31;;;;;;;3.15;0.90;;;4.00;79.60;;;;;;5075505;28;20055;-69
2022/12/07 08:00:56;;;;;;;4.22;0.70;;;4.10;79.70;;;;;;5046396;28;20044;-69
2022/12/07 08:03:22;;;;;;;3.10;0.65;;;4.10;79.80;;;;;;5055894;28;20044;-69
2022/12/07 08:05:48;;;;;;;3.83;0.68;;;4.10;79.90;;;;;;5058593;28;20048;-69
2022/12/07 08:08:13;;;;;;;2.47;0.68;;;4.00;79.90;;;;;;5075101;28;20068;-69
2022/12/07 08:10:39;;;;;;;2.58;0.90;;;4.20;80.10;;;;;;5042014;28;20098;-69
2022/12/07 08:13:10;;;;;;;6.75;1.35;;;4.10;80.00;;;;;;5073987;28;20103;-69
2022/12/07 08:15:38;;;;;;;3.30;0.70;;;4.10;80.00;;;;;;5075141;28;20513;-68
2022/12/07 08:18:04;;;;;;;5.53;1.27;;;4.20;80.20;;;;;;5039536;28;20040;-69
2022/12/07 08:20:34;;;;;;;5.03;0.95;;;4.10;80.10;;;;;;5055557;28;20510;-69
2022/12/07 08:23:00;;;;;;;4.97;0.85;;;4.20;80.20;;;;;;5057262;28;20054;-68
2022/12/07 08:25:26;;;;;;;3.88;0.60;;;4.20;80.20;;;;;;5075309;28;20039;-68
2022/12/07 08:27:52;;;;;;;3.75;0.70;;;4.10;80.10;;;;;;5074799;28;20028;-69
2022/12/07 08:30:19;;;;;;;4.32;0.80;;;4.20;80.20;;;;;;5075082;28;20046;-69
2022/12/07 08:32:45;;;;;;;2.67;0.80;;;4.20;80.60;;;;;;5068270;28;20039;-70
2022/12/07 08:35:11;;;;;;;5.45;1.10;;;4.20;80.20;;;;;;5055405;28;20670;-69
2022/12/07 08:37:37;;;;;;;4.78;1.00;;;4.30;80.30;;;;;;5055383;28;20068;-68
2022/12/07 08:40:04;;;;;;;3.60;0.98;;;4.20;80.30;;;;;;5055342;28;20072;-68
2022/12/07 08:42:37;;;;;;;4.20;1.20;;;4.30;80.50;;;;;;5066836;28;20032;-68
2022/12/07 08:45:08;;;;;;;2.60;1.23;;;4.30;80.50;;;;;;5074968;28;20093;-68
2022/12/07 08:47:37;;;;;;;4.90;1.00;;;4.30;80.50;;;;;;5058089;28;20039;-68
2022/12/07 08:50:05;;;;;;;4.88;1.05;;;4.40;80.60;;;;;;5074336;28;20117;-68
2022/12/07 08:52:32;;;;;;;4.03;0.90;;;4.40;80.60;;;;;;5056095;28;20086;-69
2022/12/07 08:54:59;;;;;;;5.88;1.20;;;4.40;80.50;;;;;;5055033;28;20047;-68
2022/12/07 08:57:27;;;;;;;5.53;1.27;;;4.40;80.50;;;;;;5054973;28;20040;-68
2022/12/07 08:59:53;;;;;;;5.00;1.13;;;4.50;80.50;;;;;;5059053;28;20372;-68
2022/12/07 09:02:19;;;;;;;3.92;1.08;;;4.50;80.40;;;;;;5074404;28;20040;-69
2022/12/07 09:04:45;;;;;;;5.32;1.42;;;4.50;80.30;;;;;;5074047;28;20045;-68
2022/12/07 09:07:10;;;;;;;5.13;1.27;;;4.50;80.20;;;;;;5060823;28;20123;-69
2022/12/07 09:09:36;;;;;;;4.03;1.75;;;4.50;80.10;;;;;;5063254;28;20051;-69
2022/12/07 09:12:02;;;;;;;3.55;1.40;;;4.60;80.20;;;;;;5074722;28;20653;-69
2022/12/07 09:14:28;;;;;;;8.55;1.17;;;4.60;80.10;;;;;;5074433;28;20032;-69
2022/12/07 09:16:54;;;;;;;7.53;1.65;;;4.60;80.10;;;;;;5073977;28;20102;-77
2022/12/07 09:19:19;;;;;;;6.22;1.35;;;4.70;80.20;;;;;;5060438;28;20041;-75
2022/12/07 09:21:45;;;;;;;4.85;1.25;;;4.70;80.20;;;;;;5046256;28;20048;-74
2022/12/07 09:24:12;;;;;;;3.30;1.20;;;4.70;80.20;;;;;;5067257;28;20090;-75
2022/12/07 09:26:40;;;;;;;5.65;2.08;;;4.80;80.30;;;;;;5056267;28;20483;-76
2022/12/07 09:29:06;;;;;;;6.75;1.55;;;4.80;80.40;;;;;;5054105;28;20037;-75
2022/12/07 09:31:31;;;;;;;6.50;1.30;;;4.90;80.60;;;;;;5038495;28;20090;-75
2022/12/07 09:33:59;;;;;;;10.52;1.63;;;5.00;80.70;;;;;;5048241;28;20039;-76
2022/12/07 09:36:25;;;;;;;11.68;2.10;;;5.00;80.70;;;;;;5052799;28;20037;-74
2022/12/07 09:38:51;;;;;;;6.28;1.20;;;5.10;80.80;;;;;;5038177;28;20080;-75
2022/12/07 09:41:18;;;;;;;5.55;1.00;;;5.10;80.60;;;;;;5050272;28;20433;-75
2022/12/07 09:43:45;;;;;;;5.15;1.50;;;5.30;80.60;;;;;;5066280;28;20458;-75
2022/12/07 09:46:17;;;;;;;5.82;1.10;;;5.30;80.40;;;;;;5063956;28;20049;-75
2022/12/07 09:48:43;;;;;;;4.90;0.93;;;5.30;80.30;;;;;;5054943;28;20032;-75
2022/12/07 09:51:22;;;;;;;4.60;1.30;;;5.40;80.10;;;;;;5054625;28;20101;-75
2022/12/07 09:53:48;;;;;;;5.28;1.13;;;5.40;80.00;;;;;;5052763;28;20040;-75
2022/12/07 09:56:16;;;;;;;8.45;1.35;;;5.40;79.80;;;;;;5023593;28;20055;-75
2022/12/07 09:58:42;;;;;;;7.25;1.30;;;5.40;79.60;;;;;;5059470;28;20047;-75
2022/12/07 10:01:08;;;;;;;5.68;0.95;;;5.50;79.60;;;;;;5075083;28;20380;-75
2022/12/07 10:03:37;;;;;;;8.07;1.20;;;5.50;79.40;;;;;;5077401;28;20039;-75
2022/12/07 10:06:05;;;;;;;5.28;1.23;;;5.40;79.30;;;;;;5078102;28;20414;-75
2022/12/07 10:08:31;;;;;;;4.43;0.90;;;5.50;79.40;;;;;;5045053;28;20093;-75
2022/12/07 10:10:57;;;;;;;5.32;0.88;;;5.50;79.30;;;;;;5044553;28;20063;-75
2022/12/07 10:13:36;;;;;;;4.57;0.80;;;5.50;79.40;;;;;;5069090;28;20043;-77
2022/12/07 10:16:02;;;;;;;5.85;0.90;;;5.60;79.50;;;;;;5058359;28;20080;-76
2022/12/07 10:18:32;;;;;;;5.80;1.40;;;5.60;79.90;;;;;;5041326;28;20067;-76
2022/12/07 10:21:07;;;;;;;6.10;1.48;;;5.60;79.80;;;;;;5057889;28;20056;-76
2022/12/07 10:23:34;;;;;;;7.63;1.30;;;5.70;79.90;;;;;;5074879;28;20097;-76
2022/12/07 10:26:18;;;;;;;8.32;1.63;;;5.70;79.80;;;;;;5077500;28;20066;-76
2022/12/07 10:28:44;;;;;;;4.20;1.00;;;5.80;79.70;;;;;;5059260;28;20051;-76
2022/12/07 10:31:28;;;;;;;7.15;1.20;;;5.80;79.60;;;;;;5049983;28;20040;-76
2022/12/07 10:33:58;;;;;;;7.47;1.77;;;5.80;79.40;;;;;;5058092;28;20044;-75
2022/12/07 10:36:37;;;;;;;7.35;1.30;;;5.80;79.40;;;;;;5066065;28;20044;-75
2022/12/07 10:39:23;;;;;;;7.32;1.10;;;5.80;79.40;;;;;;5073616;28;20073;-76
2022/12/07 10:42:02;;;;;;;9.80;1.00;;;5.90;79.20;;;;;;5073230;28;20050;-76
2022/12/07 10:44:31;;;;;;;6.65;1.90;;;5.90;79.20;;;;;;5057653;28;20028;-76
2022/12/07 10:47:25;;;;;;;5.85;1.00;;;5.90;79.00;;;;;;5057633;28;20036;-76
2022/12/07 10:50:28;;;;;;;6.38;1.27;;;5.90;78.70;;;;;;5065446;28;20072;-76
2022/12/07 10:53:23;;;;;;;5.78;0.95;;;5.90;78.70;;;;;;5057567;28;20044;-76
2022/12/07 10:56:08;;;;;;;;;;;5.90;78.60;;;;;;5041533;28;20361;-76
2022/12/07 10:59:02;;;;;;;4.70;0.95;;;5.90;78.50;;;;;;5041249;28;19991;-76
2022/12/07 11:01:47;;;;;;;7.20;1.05;;;5.90;78.80;;;;;;5057276;28;20466;-76
2022/12/07 11:04:44;;;;;;;4.40;1.13;;;5.90;78.80;;;;;;5058156;28;20127;-76
2022/12/07 11:07:20;;;;;;;7.75;1.30;;;5.90;78.80;;;;;;5021619;28;20036;-76
2022/12/07 11:10:05;;;;;;;4.38;0.98;;;5.90;78.90;;;;;;5071720;28;20036;-76
2022/12/07 11:12:56;;;;;;;3.45;0.63;;;5.90;78.90;;;;;;5059385;28;20049;-76
2022/12/07 11:15:52;;;;;;;5.68;1.40;;;6.00;79.00;;;;;;5058990;28;20056;-76
2022/12/07 11:18:50;;;;;;;5.40;1.83;;;6.00;79.10;;;;;;5058380;28;20068;-76
2022/12/07 11:21:20;;;;;;;4.40;1.67;;;6.00;79.20;;;;;;5045825;28;20052;-76
2022/12/07 11:24:17;;;;;;;6.63;1.38;;;6.00;79.30;;;;;;5057817;28;20127;-75
2022/12/07 11:27:07;;;;;;;8.55;1.33;;;6.00;79.80;;;;;;5067103;28;20052;-75
2022/12/07 11:29:51;;;;;;;4.80;1.13;;;6.10;79.30;;;;;;5074687;28;20491;-75
2022/12/07 11:32:34;;;;;;;7.47;1.23;;;6.10;79.40;;;;;;5041474;28;20051;-75
2022/12/07 11:35:27;;;;;;;4.47;1.42;;;6.10;79.50;;;;;;5059614;28;20044;-75
2022/12/07 11:38:02;;;;;;;6.15;1.40;;;6.10;79.50;;;;;;5059177;28;20070;-75
2022/12/07 11:40:35;;;;;;;9.52;2.03;;;6.10;79.60;;;;;;5075800;28;20105;-75
2022/12/07 11:43:06;;;;;;;9.27;1.50;;;6.20;79.70;;;;;;5048363;28;20064;-75
2022/12/07 11:45:40;;;;;;;7.00;1.50;;;6.20;79.70;;;;;;5064553;28;20440;-75
2022/12/07 11:48:12;;;;;;;5.00;0.98;;;6.30;79.70;;;;;;5056470;28;20487;-75
2022/12/07 11:50:43;;;;;;;7.60;1.35;;;6.30;79.40;;;;;;5072256;28;20115;-75
2022/12/07 11:53:09;;;;;;;7.68;1.30;;;6.30;79.30;;;;;;5056893;28;20047;-75
2022/12/07 11:56:01;;;;;;;5.75;1.08;;;6.30;79.10;;;;;;5064109;28;20039;-75
2022/12/07 11:58:33;;;;;;;8.05;1.40;;;6.30;78.70;;;;;;5075518;28;20403;-75
2022/12/07 12:01:22;;;;;;;10.18;1.20;;;6.30;78.80;;;;;;5075331;28;20036;-75
2022/12/07 12:03:56;;;;;;;7.75;1.50;;;6.30;78.60;;;;;;5062246;28;20075;-75
2022/12/07 12:06:22;;;;;;;5.80;1.17;;;6.30;78.70;;;;;;5048937;28;20033;-75
2022/12/07 12:09:20;;;;;;;6.30;1.15;;;6.40;78.70;;;;;;5042845;28;20047;-75
2022/12/07 12:12:07;;;;;;;4.88;0.95;;;6.40;78.60;;;;;;5063164;28;20043;-75
2022/12/07 12:14:48;;;;;;;4.10;0.93;;;6.40;79.10;;;;;;5069846;28;20036;-75
2022/12/07 12:17:20;;;;;;;6.80;1.30;;;6.40;78.70;;;;;;5056211;28;20053;-75
2022/12/07 12:20:02;;;;;;;3.45;1.02;;;6.50;78.70;;;;;;5055659;28;20086;-75
2022/12/07 12:22:38;;;;;;;4.50;1.10;;;6.50;78.50;;;;;;5068152;28;20119;-75
2022/12/07 12:25:06;;;;;;;5.70;1.33;;;6.50;78.50;;;;;;5073897;28;20499;-75
2022/12/07 12:27:36;;;;;;;4.57;1.23;;;6.60;78.60;;;;;;5058704;28;20360;-75
2022/12/07 12:30:06;;;;;;;6.22;1.15;;;6.60;78.40;;;;;;5074897;28;20040;-76
2022/12/07 12:32:41;;;;;;;6.28;1.00;;;6.60;78.30;;;;;;5062983;28;20062;-75
2022/12/07 12:35:30;;;;;;;9.38;1.83;;;6.60;78.30;;;;;;5039692;28;20040;-75
2022/12/07 12:38:49;;;;;;;5.13;1.10;;;6.60;78.20;;;;;;5075120;28;20040;-75
2022/12/07 12:44:14;;;;;;;4.00;0.80;;;6.70;78.10;;;;;;5055292;28;20159;-76
2022/12/07 12:46:49;;;;;;;9.18;1.33;;;6.70;78.20;;;;;;5055220;28;20062;-75
2022/12/07 12:49:21;;;;;;;8.75;1.60;;;6.70;78.20;;;;;;5066179;28;20123;-78
2022/12/07 12:52:13;;;;;;;9.52;1.42;;;6.80;78.20;;;;;;5060181;28;20126;-78
2022/12/07 12:54:38;;;;;;;7.82;1.27;;;6.80;78.20;;;;;;5073524;28;20044;-78
2022/12/07 12:57:18;;;;;;;7.20;1.67;;;6.80;78.10;;;;;;5067899;28;20419;-78
2022/12/07 12:59:53;;;;;;;5.75;1.20;;;6.90;78.00;;;;;;5055178;28;20032;-78
2022/12/07 13:02:26;;;;;;;7.97;1.15;;;6.80;77.90;;;;;;5064023;28;20048;-78
2022/12/07 13:05:12;;;;;;;7.82;1.67;;;6.80;77.80;;;;;;5069622;28;20054;-75
2022/12/07 13:07:48;;;;;;;4.55;1.20;;;6.80;77.50;;;;;;5056608;28;20052;-76
2022/12/07 13:10:23;;;;;;;9.00;1.02;;;6.80;77.30;;;;;;5073285;28;20376;-75
2022/12/07 13:13:10;;;;;;;5.55;0.90;;;6.80;77.10;;;;;;5071019;28;20153;-74
2022/12/07 13:16:07;;;;;;;6.57;1.05;;;6.80;76.80;;;;;;5046985;28;20091;-74
2022/12/07 13:18:33;;;;;;;5.50;1.17;;;6.80;76.60;;;;;;5064145;28;20055;-76
2022/12/07 13:21:01;;;;;;;6.70;1.77;;;6.80;76.70;;;;;;5066215;28;20064;-76
2022/12/07 13:23:36;;;;;;;3.72;0.95;;;6.80;76.70;;;;;;5066491;28;20491;-76
2022/12/07 13:26:16;;;;;;;4.93;0.90;;;6.80;76.60;;;;;;5054654;28;20036;-76
2022/12/07 13:28:47;;;;;;;7.40;1.27;;;6.80;76.70;;;;;;5069768;28;20032;-76